Time;durP1;ratioP1;P1;durP2;ratioP2;P2;SDS_P1;SDS_P2;PMS_P1;PMS_P2;Temp;Humidity;BMP_temperature;BMP_pressure;BME280_temperature;BME280_humidity;BME280_pressure;Samples;Min_cycle;Max_cycle;Signal;HPM_P1;HPM_P2
2022/07/15 00:01:39;;;;;;;8.37;3.07;;;22.40;8.30;;;;;;5055253;28;20684;-68
2022/07/15 00:04:06;;;;;;;9.00;3.10;;;22.40;8.50;;;;;;5047509;28;20492;-68
2022/07/15 00:06:32;;;;;;;7.37;3.20;;;22.30;8.40;;;;;;5046498;28;20977;-68
2022/07/15 00:08:59;;;;;;;5.80;2.90;;;22.30;8.70;;;;;;5047666;28;20481;-68
2022/07/15 00:11:26;;;;;;;9.47;3.10;;;22.20;8.80;;;;;;5066684;28;20471;-68
2022/07/15 00:13:55;;;;;;;10.23;3.30;;;22.20;9.00;;;;;;5052698;28;20477;-68
2022/07/15 00:16:22;;;;;;;6.97;3.23;;;22.10;9.00;;;;;;5065596;28;20879;-68
2022/07/15 00:18:49;;;;;;;7.00;3.13;;;22.10;9.10;;;;;;5048981;28;20469;-68
2022/07/15 00:21:15;;;;;;;7.83;3.00;;;22.10;9.20;;;;;;5058679;28;20460;-68
2022/07/15 00:23:42;;;;;;;7.00;3.10;;;22.00;9.20;;;;;;5060960;28;20469;-68
2022/07/15 00:26:09;;;;;;;7.67;3.43;;;22.00;9.30;;;;;;5047416;28;20481;-68
2022/07/15 00:28:36;;;;;;;8.13;2.83;;;22.00;9.40;;;;;;5053167;28;20981;-68
2022/07/15 00:31:04;;;;;;;8.63;3.70;;;22.00;9.30;;;;;;5059676;28;20481;-68
2022/07/15 00:33:31;;;;;;;6.60;3.20;;;21.90;9.60;;;;;;5060361;28;20840;-68
2022/07/15 00:35:58;;;;;;;7.97;2.97;;;21.90;9.90;;;;;;5060908;28;20483;-68
2022/07/15 00:38:25;;;;;;;5.00;3.03;;;21.90;10.10;;;;;;5065950;28;20755;-68
2022/07/15 00:40:52;;;;;;;8.87;3.33;;;21.80;10.20;;;;;;5044176;28;20473;-68
2022/07/15 00:43:19;;;;;;;5.93;3.17;;;21.80;10.10;;;;;;5054609;28;20986;-68
2022/07/15 00:45:47;;;;;;;7.90;3.90;;;21.70;10.20;;;;;;5066985;28;20484;-68
2022/07/15 00:48:16;;;;;;;8.07;3.80;;;21.80;10.10;;;;;;5062304;28;20849;-68
2022/07/15 00:50:42;;;;;;;7.37;3.87;;;21.70;10.00;;;;;;5045820;28;20490;-68
2022/07/15 00:53:18;;;;;;;9.57;4.30;;;21.70;10.10;;;;;;5046925;28;20465;-68
2022/07/15 00:55:46;;;;;;;6.03;3.10;;;21.70;10.20;;;;;;5062318;28;20476;-68
2022/07/15 00:58:17;;;;;;;7.23;3.70;;;21.70;10.10;;;;;;5049822;28;20461;-68
2022/07/15 01:00:44;;;;;;;7.93;3.90;;;21.70;10.30;;;;;;5045454;28;20476;-68
2022/07/15 01:03:11;;;;;;;8.73;3.87;;;21.60;10.40;;;;;;5064542;28;20460;-68
2022/07/15 01:05:40;;;;;;;11.47;4.70;;;21.60;10.70;;;;;;5067232;28;20488;-68
2022/07/15 01:08:07;;;;;;;10.70;4.80;;;21.60;10.80;;;;;;5045668;28;20496;-68
2022/07/15 01:10:35;;;;;;;8.70;4.23;;;21.60;10.60;;;;;;5053631;28;20486;-68
2022/07/15 01:13:04;;;;;;;9.07;4.53;;;21.50;10.60;;;;;;5044789;28;20450;-68
2022/07/15 01:15:32;;;;;;;8.40;3.70;;;21.50;10.70;;;;;;5054235;28;20473;-68
2022/07/15 01:18:02;;;;;;;8.90;3.50;;;21.40;10.70;;;;;;5044634;28;21002;-68
2022/07/15 01:20:29;;;;;;;6.40;3.10;;;21.40;10.60;;;;;;5049393;28;20454;-68
2022/07/15 01:22:58;;;;;;;6.93;3.40;;;21.40;10.80;;;;;;5050860;28;20458;-68
2022/07/15 01:25:26;;;;;;;6.80;4.00;;;21.30;11.00;;;;;;5057942;28;20478;-68
2022/07/15 01:27:53;;;;;;;11.23;4.83;;;21.30;11.10;;;;;;5050892;28;20469;-68
2022/07/15 01:30:19;;;;;;;9.30;4.80;;;21.20;11.50;;;;;;5049181;28;20870;-68
2022/07/15 01:32:46;;;;;;;8.07;3.90;;;21.20;11.20;;;;;;5050402;28;20468;-68
2022/07/15 01:35:13;;;;;;;11.60;4.00;;;21.10;11.60;;;;;;5058727;28;20488;-68
2022/07/15 01:37:40;;;;;;;8.53;3.60;;;21.00;11.70;;;;;;5059563;28;20959;-68
2022/07/15 01:40:09;;;;;;;5.80;2.93;;;20.90;11.90;;;;;;5049360;28;20969;-68
2022/07/15 01:42:36;;;;;;;8.07;3.83;;;20.80;12.10;;;;;;5049385;28;20469;-68
2022/07/15 01:45:03;;;;;;;9.03;3.80;;;20.80;12.30;;;;;;5053061;28;20832;-68
2022/07/15 01:47:32;;;;;;;7.77;3.87;;;20.80;12.20;;;;;;5056583;28;20505;-68
2022/07/15 01:49:58;;;;;;;7.50;3.80;;;20.70;11.90;;;;;;5061215;28;20750;-68
2022/07/15 01:52:25;;;;;;;7.00;3.30;;;20.60;12.00;;;;;;5050012;28;20462;-68
2022/07/15 01:54:53;;;;;;;6.23;3.53;;;20.60;12.30;;;;;;5064927;28;20896;-68
2022/07/15 01:57:21;;;;;;;6.47;3.53;;;20.50;12.40;;;;;;5064257;28;20472;-68
2022/07/15 01:59:48;;;;;;;7.03;3.23;;;20.40;12.50;;;;;;5056747;28;20454;-68
2022/07/15 02:02:16;;;;;;;8.60;3.63;;;20.40;12.70;;;;;;5049496;28;20482;-68
2022/07/15 02:04:42;;;;;;;6.87;3.00;;;20.40;12.70;;;;;;5050086;28;20478;-68
2022/07/15 02:07:09;;;;;;;8.80;3.67;;;20.30;12.80;;;;;;5050537;28;20466;-68
2022/07/15 02:09:36;;;;;;;6.50;3.73;;;20.20;12.70;;;;;;5059132;28;20496;-68
2022/07/15 02:12:03;;;;;;;6.50;3.30;;;20.20;12.40;;;;;;5058547;28;20466;-68
2022/07/15 02:14:32;;;;;;;8.10;3.30;;;20.20;12.40;;;;;;5050901;28;20481;-68
2022/07/15 02:16:59;;;;;;;6.77;3.87;;;20.10;12.80;;;;;;5054279;28;20453;-68
2022/07/15 02:19:25;;;;;;;9.67;3.97;;;20.10;12.90;;;;;;5058961;28;20455;-68
2022/07/15 02:21:52;;;;;;;6.77;2.73;;;20.10;13.00;;;;;;5063923;28;20458;-68
2022/07/15 02:24:19;;;;;;;5.40;2.87;;;20.00;12.90;;;;;;5050329;28;20462;-68
2022/07/15 02:26:46;;;;;;;7.00;3.10;;;20.00;13.00;;;;;;5055467;28;20462;-68
2022/07/15 02:29:13;;;;;;;6.53;2.83;;;19.90;13.20;;;;;;5053925;28;20512;-68
2022/07/15 02:31:42;;;;;;;7.73;2.80;;;19.90;13.30;;;;;;5054265;28;20862;-68
2022/07/15 02:34:09;;;;;;;8.00;3.03;;;19.80;13.30;;;;;;5044620;28;20462;-68
2022/07/15 02:36:36;;;;;;;8.63;2.50;;;19.80;13.20;;;;;;5055068;28;21101;-68
2022/07/15 02:39:03;;;;;;;5.03;2.43;;;19.70;13.20;;;;;;5043861;28;20476;-68
2022/07/15 02:41:30;;;;;;;5.23;2.60;;;19.70;13.20;;;;;;5064319;28;20479;-68
2022/07/15 02:43:59;;;;;;;6.20;2.70;;;19.70;13.00;;;;;;5053665;28;20462;-68
2022/07/15 02:46:26;;;;;;;7.20;3.43;;;19.70;12.90;;;;;;5056176;28;20477;-68
2022/07/15 02:48:54;;;;;;;6.00;3.17;;;19.70;12.80;;;;;;5056502;28;20457;-68
2022/07/15 02:51:20;;;;;;;8.03;3.03;;;19.70;13.10;;;;;;5057637;28;20565;-68
2022/07/15 02:53:47;;;;;;;5.80;2.80;;;19.70;13.30;;;;;;5056505;28;20825;-68
2022/07/15 02:56:14;;;;;;;6.40;2.80;;;19.60;13.30;;;;;;5047538;28;20849;-68
2022/07/15 02:58:41;;;;;;;6.10;2.80;;;19.60;13.20;;;;;;5056319;28;21011;-68
2022/07/15 03:01:07;;;;;;;6.23;2.40;;;19.60;13.00;;;;;;5048734;28;21052;-68
2022/07/15 03:03:34;;;;;;;8.07;3.10;;;19.50;12.90;;;;;;5047059;28;20465;-68
2022/07/15 03:06:04;;;;;;;6.13;2.40;;;19.50;12.80;;;;;;5044344;28;20673;-68
2022/07/15 03:08:33;;;;;;;6.97;2.30;;;19.50;12.60;;;;;;5062591;28;20461;-63
2022/07/15 03:11:00;;;;;;;6.10;2.33;;;19.50;12.50;;;;;;5054722;28;20485;-64
2022/07/15 03:13:27;;;;;;;5.43;2.10;;;19.50;12.50;;;;;;5053497;28;20462;-63
2022/07/15 03:15:54;;;;;;;6.50;3.43;;;19.50;12.60;;;;;;5043804;28;20572;-64
2022/07/15 03:18:20;;;;;;;5.67;2.40;;;19.40;12.60;;;;;;5053157;28;20465;-62
2022/07/15 03:20:47;;;;;;;5.53;2.27;;;19.40;13.00;;;;;;5058340;28;20458;-63
2022/07/15 03:23:16;;;;;;;5.97;2.20;;;19.30;13.00;;;;;;5060558;28;20464;-64
2022/07/15 03:25:42;;;;;;;7.60;2.77;;;19.30;13.00;;;;;;5067860;28;20550;-63
2022/07/15 03:28:09;;;;;;;6.90;3.20;;;19.30;13.00;;;;;;5057615;28;20946;-63
2022/07/15 03:30:36;;;;;;;7.00;2.73;;;19.30;12.80;;;;;;5058249;28;20472;-68
2022/07/15 03:33:03;;;;;;;7.23;2.73;;;19.20;12.90;;;;;;5050562;28;20466;-67
2022/07/15 03:35:29;;;;;;;9.10;3.13;;;19.20;13.00;;;;;;5047978;28;20938;-68
2022/07/15 03:37:56;;;;;;;8.47;3.23;;;19.10;13.20;;;;;;5045261;28;20458;-67
2022/07/15 03:40:24;;;;;;;7.73;3.20;;;19.20;13.40;;;;;;5047820;28;20466;-68
2022/07/15 03:42:51;;;;;;;6.17;3.40;;;19.10;13.40;;;;;;5052699;28;20543;-68
2022/07/15 03:45:18;;;;;;;6.10;2.57;;;19.20;13.70;;;;;;5048605;28;20490;-68
2022/07/15 03:47:45;;;;;;;8.30;3.10;;;19.10;13.70;;;;;;5047896;28;20458;-68
2022/07/15 03:50:12;;;;;;;5.57;2.77;;;19.10;13.70;;;;;;5047726;28;20478;-68
2022/07/15 03:52:39;;;;;;;7.50;3.03;;;19.10;13.80;;;;;;5056896;28;20462;-68
2022/07/15 03:55:07;;;;;;;9.90;3.50;;;19.10;13.70;;;;;;5047592;28;20931;-67
2022/07/15 03:57:35;;;;;;;7.40;3.20;;;19.20;13.50;;;;;;5048258;28;20470;-68
2022/07/15 04:00:02;;;;;;;6.70;2.93;;;19.20;13.40;;;;;;5047026;28;20458;-68
2022/07/15 04:02:28;;;;;;;10.13;3.50;;;19.20;13.30;;;;;;5058914;28;20474;-68
2022/07/15 04:04:55;;;;;;;9.83;3.10;;;19.20;13.40;;;;;;5041312;28;21045;-68
2022/07/15 04:07:22;;;;;;;7.93;2.83;;;19.20;13.40;;;;;;5044684;28;20989;-67
2022/07/15 04:09:49;;;;;;;6.63;3.70;;;19.20;13.30;;;;;;5050626;28;20943;-68
2022/07/15 04:12:15;;;;;;;7.33;2.83;;;19.20;13.30;;;;;;5046889;28;20470;-68
2022/07/15 04:14:45;;;;;;;5.50;2.30;;;19.10;13.70;;;;;;5059620;28;20501;-67
2022/07/15 04:17:13;;;;;;;8.27;3.53;;;19.00;14.00;;;;;;5063676;28;20468;-67
2022/07/15 04:19:40;;;;;;;7.87;3.10;;;19.00;14.00;;;;;;5056348;28;20942;-67
2022/07/15 04:22:06;;;;;;;5.80;3.00;;;19.00;14.00;;;;;;5045641;28;20454;-68
2022/07/15 04:24:33;;;;;;;6.60;3.63;;;19.00;14.20;;;;;;5046625;28;20486;-68
2022/07/15 04:27:00;;;;;;;10.20;3.03;;;19.00;14.20;;;;;;5066358;28;20461;-67
2022/07/15 04:29:27;;;;;;;9.00;3.30;;;19.10;14.20;;;;;;5068003;28;20484;-68
2022/07/15 04:31:55;;;;;;;9.27;3.47;;;19.10;14.20;;;;;;5050513;28;20474;-67
2022/07/15 04:34:22;;;;;;;8.63;3.90;;;19.10;14.10;;;;;;5047005;28;20464;-67
2022/07/15 04:36:49;;;;;;;8.63;3.30;;;19.30;13.90;;;;;;5047193;28;20458;-68
2022/07/15 04:39:16;;;;;;;8.77;3.80;;;19.70;13.20;;;;;;5046956;28;20474;-68
2022/07/15 04:41:42;;;;;;;8.80;3.13;;;20.20;12.30;;;;;;5045209;28;20458;-68
2022/07/15 04:44:09;;;;;;;6.97;2.97;;;20.80;11.50;;;;;;5046446;28;20481;-67
2022/07/15 04:46:36;;;;;;;6.03;2.70;;;21.40;10.60;;;;;;5047450;28;20461;-67
2022/07/15 04:51:48;;;;;;;5.93;3.00;;;21.90;9.70;;;;;;5047187;28;20469;-68
2022/07/15 04:54:15;;;;;;;5.97;2.37;;;22.00;9.20;;;;;;5049855;28;20473;-68
2022/07/15 04:56:42;;;;;;;8.90;2.70;;;21.80;9.50;;;;;;5051077;28;20473;-68
2022/07/15 04:59:09;;;;;;;5.70;2.43;;;21.70;9.80;;;;;;5050969;28;20460;-68
2022/07/15 05:01:35;;;;;;;13.83;5.20;;;22.70;8.80;;;;;;5071125;28;20470;-68
2022/07/15 05:04:04;;;;;;;8.77;2.77;;;23.80;7.40;;;;;;5053386;28;20469;-68
2022/07/15 05:06:30;;;;;;;7.20;2.80;;;24.80;5.60;;;;;;5050433;28;20994;-68
2022/07/15 05:08:57;;;;;;;8.70;3.67;;;25.70;4.20;;;;;;5050956;28;20460;-68
2022/07/15 05:11:24;;;;;;;7.07;2.27;;;26.50;3.10;;;;;;5051484;28;20500;-68
2022/07/15 05:13:51;;;;;;;9.60;2.90;;;27.30;1.60;;;;;;5050144;28;20461;-68
2022/07/15 05:16:18;;;;;;;6.47;2.30;;;28.10;1.00;;;;;;5049038;28;20517;-68
2022/07/15 05:18:45;;;;;;;6.70;2.23;;;28.90;1.00;;;;;;5051067;28;20548;-68
2022/07/15 05:21:13;;;;;;;5.20;2.10;;;29.60;1.00;;;;;;5050334;28;20504;-68
2022/07/15 05:23:40;;;;;;;11.63;2.33;;;30.20;1.00;;;;;;5050560;28;20984;-68
2022/07/15 05:26:07;;;;;;;4.90;2.23;;;30.90;1.00;;;;;;5048766;28;20543;-68
2022/07/15 05:28:34;;;;;;;6.70;2.40;;;31.50;1.00;;;;;;5050809;28;20469;-68
2022/07/15 05:31:01;;;;;;;5.53;2.20;;;32.20;1.00;;;;;;5050204;28;20478;-68
2022/07/15 05:33:27;;;;;;;5.57;2.23;;;32.80;1.00;;;;;;5049908;28;20461;-68
2022/07/15 05:35:54;;;;;;;5.80;2.30;;;33.40;1.00;;;;;;5048379;28;20474;-68
2022/07/15 05:38:23;;;;;;;5.53;1.90;;;34.00;1.00;;;;;;5050636;28;20560;-70
2022/07/15 05:40:50;;;;;;;6.20;2.30;;;34.60;1.00;;;;;;5050294;28;20986;-69
2022/07/15 05:43:17;;;;;;;4.83;2.00;;;35.20;1.00;;;;;;5050348;28;20473;-68
2022/07/15 05:45:44;;;;;;;6.70;2.50;;;35.50;1.00;;;;;;5048914;28;20531;-69
2022/07/15 05:48:10;;;;;;;4.80;1.93;;;36.10;1.00;;;;;;5050261;28;20450;-68
2022/07/15 05:50:38;;;;;;;4.60;1.80;;;36.40;1.00;;;;;;5064876;28;20527;-69
2022/07/15 05:53:04;;;;;;;8.10;2.03;;;36.90;1.00;;;;;;5069776;28;20461;-69
2022/07/15 05:55:33;;;;;;;4.87;1.50;;;37.30;1.00;;;;;;5069618;28;20485;-69
2022/07/15 05:57:59;;;;;;;5.27;1.70;;;37.70;1.00;;;;;;5049680;28;20462;-69
2022/07/15 06:00:26;;;;;;;4.90;1.80;;;37.80;1.00;;;;;;5062725;28;20586;-69
2022/07/15 06:02:53;;;;;;;6.50;2.10;;;37.50;1.00;;;;;;5069592;28;20465;-69
2022/07/15 06:05:20;;;;;;;4.83;1.60;;;37.80;1.00;;;;;;5068461;28;20480;-69
2022/07/15 06:07:47;;;;;;;6.63;2.40;;;38.40;1.00;;;;;;5051788;28;20450;-69
2022/07/15 06:10:14;;;;;;;6.00;1.43;;;39.30;1.00;;;;;;5049676;28;20466;-69
2022/07/15 06:12:42;;;;;;;6.53;2.10;;;39.70;1.00;;;;;;5049411;28;20497;-69
2022/07/15 06:15:09;;;;;;;5.20;1.73;;;39.80;1.00;;;;;;5049553;28;20485;-69
2022/07/15 06:17:37;;;;;;;5.30;2.00;;;40.40;1.00;;;;;;5047884;28;20829;-69
2022/07/15 06:20:04;;;;;;;6.10;1.90;;;41.00;1.00;;;;;;5061929;28;20468;-69
2022/07/15 06:22:31;;;;;;;5.13;1.97;;;41.60;1.00;;;;;;5069415;28;20882;-69
2022/07/15 06:24:58;;;;;;;5.87;1.80;;;42.10;1.00;;;;;;5061978;28;21013;-69
2022/07/15 06:27:25;;;;;;;5.00;1.90;;;42.80;1.00;;;;;;5061195;28;20497;-69
2022/07/15 06:29:53;;;;;;;5.50;1.73;;;43.10;1.00;;;;;;5049511;28;20454;-69
2022/07/15 06:32:20;;;;;;;6.07;2.17;;;43.50;1.00;;;;;;5048783;28;20486;-69
2022/07/15 06:34:46;;;;;;;6.50;1.87;;;44.00;1.00;;;;;;5049359;28;20482;-69
2022/07/15 06:37:13;;;;;;;6.47;2.17;;;44.50;1.00;;;;;;5049227;28;20764;-69
2022/07/15 06:39:40;;;;;;;5.07;2.20;;;44.70;1.00;;;;;;5048382;28;20474;-69
2022/07/15 06:42:07;;;;;;;7.20;1.73;;;44.90;1.00;;;;;;5057054;28;20759;-69
2022/07/15 06:44:34;;;;;;;6.03;1.70;;;45.20;1.00;;;;;;5069361;28;21012;-69
2022/07/15 06:47:03;;;;;;;5.57;1.97;;;45.10;1.00;;;;;;5068691;28;20464;-70
2022/07/15 06:49:30;;;;;;;5.60;2.07;;;44.90;1.00;;;;;;5056245;28;20461;-69
2022/07/15 06:51:58;;;;;;;4.60;1.83;;;44.80;1.00;;;;;;5063600;28;20484;-69
2022/07/15 06:54:25;;;;;;;6.67;2.13;;;44.50;1.00;;;;;;5069328;28;20522;-69
2022/07/15 06:56:52;;;;;;;5.50;2.27;;;44.20;1.00;;;;;;5060654;28;20468;-69
2022/07/15 06:59:19;;;;;;;5.73;1.77;;;44.00;1.00;;;;;;5049225;28;20477;-71
2022/07/15 07:01:46;;;;;;;5.50;2.10;;;44.20;1.00;;;;;;5057708;28;20504;-69
2022/07/15 07:04:14;;;;;;;5.10;1.80;;;44.50;1.00;;;;;;5068547;28;20488;-69
2022/07/15 07:06:41;;;;;;;4.17;1.90;;;44.70;1.00;;;;;;5068576;28;20461;-69
2022/07/15 07:09:08;;;;;;;6.83;2.00;;;45.10;1.00;;;;;;5068330;28;20467;-70
2022/07/15 07:11:35;;;;;;;7.43;1.80;;;45.30;1.00;;;;;;5048874;28;20539;-70
2022/07/15 07:14:02;;;;;;;4.90;1.80;;;45.90;1.00;;;;;;5048815;28;21002;-69
2022/07/15 07:16:30;;;;;;;4.03;1.70;;;46.60;1.00;;;;;;5062256;28;20487;-69
2022/07/15 07:18:57;;;;;;;8.50;2.40;;;46.90;1.00;;;;;;5048694;28;20466;-69
2022/07/15 07:21:26;;;;;;;5.80;2.13;;;47.00;1.00;;;;;;5045370;28;20539;-69
2022/07/15 07:23:52;;;;;;;6.37;1.80;;;46.60;1.00;;;;;;5048172;28;20945;-69
2022/07/15 07:26:19;;;;;;;5.23;1.50;;;46.80;1.00;;;;;;5048313;28;20482;-69
2022/07/15 07:28:48;;;;;;;5.00;1.80;;;46.90;1.00;;;;;;5048416;28;20950;-69
2022/07/15 07:31:15;;;;;;;6.23;1.80;;;46.90;1.00;;;;;;5047096;28;20482;-70
2022/07/15 07:33:43;;;;;;;6.30;1.80;;;47.50;1.00;;;;;;5048382;28;20466;-70
2022/07/15 07:36:10;;;;;;;5.50;1.90;;;48.30;1.00;;;;;;5047378;28;20851;-69
2022/07/15 07:38:38;;;;;;;6.20;2.23;;;48.80;1.00;;;;;;5048215;28;20516;-69
2022/07/15 07:41:05;;;;;;;5.87;1.77;;;49.50;1.00;;;;;;5046774;28;20458;-70
2022/07/15 07:43:32;;;;;;;5.80;1.80;;;50.00;1.00;;;;;;5047963;28;20462;-69
2022/07/15 07:45:59;;;;;;;7.63;1.90;;;50.20;1.00;;;;;;5048040;28;20482;-70
2022/07/15 07:48:26;;;;;;;6.00;1.63;;;49.80;1.00;;;;;;5048147;28;20466;-69
2022/07/15 07:50:54;;;;;;;5.80;1.80;;;49.40;1.00;;;;;;5061442;28;20891;-69
2022/07/15 07:53:21;;;;;;;6.70;1.90;;;49.80;1.00;;;;;;5049233;28;20977;-69
2022/07/15 07:55:50;;;;;;;4.80;1.70;;;50.10;1.00;;;;;;5058659;28;20478;-70
2022/07/15 07:58:17;;;;;;;4.80;1.80;;;50.20;1.00;;;;;;5048603;28;20844;-70
2022/07/15 08:00:45;;;;;;;5.00;2.00;;;50.00;1.00;;;;;;5047245;28;20470;-70
2022/07/15 08:03:12;;;;;;;9.60;2.33;;;50.40;1.00;;;;;;5046564;28;20461;-70
2022/07/15 08:05:39;;;;;;;4.30;1.93;;;50.90;1.00;;;;;;5047412;28;20994;-70
2022/07/15 08:08:13;;;;;;;5.63;1.60;;;51.80;1.00;;;;;;5067475;28;20464;-70
2022/07/15 08:10:40;;;;;;;5.10;1.60;;;52.50;1.00;;;;;;5068420;28;20517;-70
2022/07/15 08:13:09;;;;;;;4.50;1.70;;;52.40;1.00;;;;;;5060600;28;20478;-70
2022/07/15 08:15:36;;;;;;;5.00;1.60;;;53.10;1.00;;;;;;5059388;28;20507;-70
2022/07/15 08:18:03;;;;;;;5.07;2.03;;;53.50;1.00;;;;;;5067885;28;20457;-70
2022/07/15 08:20:31;;;;;;;5.03;1.60;;;53.40;1.00;;;;;;5068027;28;20461;-70
2022/07/15 08:22:59;;;;;;;5.50;1.57;;;53.20;1.00;;;;;;5058722;28;20456;-70
2022/07/15 08:25:27;;;;;;;6.40;2.10;;;52.80;1.00;;;;;;5050105;28;20945;-70
2022/07/15 08:27:55;;;;;;;4.30;1.63;;;52.70;1.00;;;;;;5069219;28;20457;-70
2022/07/15 08:30:23;;;;;;;6.17;1.97;;;53.20;1.00;;;;;;5071131;28;20468;-70
2022/07/15 08:32:50;;;;;;;6.90;2.50;;;53.60;1.00;;;;;;5071738;28;20851;-70
2022/07/15 08:35:17;;;;;;;4.97;1.60;;;54.00;1.00;;;;;;5057067;28;20485;-70
2022/07/15 08:37:44;;;;;;;6.20;2.20;;;54.70;1.00;;;;;;5052018;28;20468;-70
2022/07/15 08:40:12;;;;;;;5.77;2.17;;;54.80;1.00;;;;;;5051091;28;20469;-70
2022/07/15 08:42:42;;;;;;;4.80;1.80;;;55.00;1.00;;;;;;5057151;28;20459;-70
2022/07/15 08:45:10;;;;;;;4.73;1.83;;;55.30;1.00;;;;;;5061331;28;20496;-70
2022/07/15 08:47:41;;;;;;;7.27;1.97;;;55.70;1.00;;;;;;5052154;28;20977;-70
2022/07/15 08:50:11;;;;;;;5.40;1.80;;;55.90;1.00;;;;;;5051252;28;20941;-70
2022/07/15 08:52:39;;;;;;;5.70;1.60;;;55.80;1.00;;;;;;5051512;28;20521;-70
2022/07/15 08:55:08;;;;;;;4.73;1.90;;;55.50;1.00;;;;;;5048645;28;20481;-70
2022/07/15 08:57:35;;;;;;;4.30;1.87;;;55.80;1.00;;;;;;5049528;28;20462;-70
2022/07/15 09:00:03;;;;;;;4.33;1.93;;;55.70;1.00;;;;;;5051987;28;20461;-69
2022/07/15 09:02:30;;;;;;;4.70;1.93;;;55.80;1.00;;;;;;5051267;28;20476;-70
2022/07/15 09:05:22;;;;;;;3.93;1.93;;;55.70;1.00;;;;;;5059427;28;20482;-70
2022/07/15 09:07:54;;;;;;;4.80;1.97;;;56.30;1.00;;;;;;5051238;28;20460;-70
2022/07/15 09:10:21;;;;;;;4.10;2.10;;;56.70;1.00;;;;;;5064469;28;20461;-70
2022/07/15 09:12:51;;;;;;;3.77;1.73;;;56.90;1.00;;;;;;5065187;28;20855;-70
2022/07/15 09:15:32;;;;;;;5.33;1.47;;;57.00;1.00;;;;;;5056501;28;20488;-70
2022/07/15 09:18:13;;;;;;;4.50;1.53;;;57.20;1.00;;;;;;5049907;28;20473;-70
2022/07/15 09:20:42;;;;;;;4.10;2.07;;;57.50;1.00;;;;;;5050193;28;20507;-70
2022/07/15 09:23:11;;;;;;;4.10;2.17;;;57.90;1.00;;;;;;5050489;28;20203;-70
2022/07/15 09:25:39;;;;;;;4.90;2.13;;;57.90;1.00;;;;;;5050439;28;20234;-70
2022/07/15 09:28:08;;;;;;;5.10;2.60;;;57.90;1.00;;;;;;5050593;28;20203;-70
2022/07/15 09:33:39;;;;;;;6.50;2.20;;;56.90;1.00;;;;;;5050233;28;20984;-70
2022/07/15 09:36:13;;;;;;;3.80;2.10;;;56.70;1.00;;;;;;5050951;28;20487;-69
2022/07/15 09:38:43;;;;;;;4.23;1.97;;;56.30;1.00;;;;;;5037316;28;20452;-70
2022/07/15 09:41:12;;;;;;;4.40;1.97;;;55.30;1.00;;;;;;5050343;28;20456;-69
2022/07/15 09:43:49;;;;;;;5.20;2.23;;;53.40;1.00;;;;;;5050389;28;20464;-70
2022/07/15 09:46:17;;;;;;;4.57;1.90;;;51.40;1.00;;;;;;5049816;28;20488;-70
2022/07/15 09:48:45;;;;;;;4.30;2.13;;;49.50;1.00;;;;;;5050491;28;20465;-69
2022/07/15 09:51:14;;;;;;;5.60;2.87;;;47.80;1.00;;;;;;5049750;28;20466;-69
2022/07/15 09:53:41;;;;;;;5.00;2.30;;;46.30;1.00;;;;;;5049859;28;20611;-70
2022/07/15 09:56:11;;;;;;;4.33;1.90;;;44.80;1.00;;;;;;5051256;28;20482;-70
2022/07/15 09:58:39;;;;;;;4.00;1.90;;;43.40;1.00;;;;;;5061072;28;20465;-69
2022/07/15 10:01:08;;;;;;;4.13;2.00;;;42.10;1.00;;;;;;5055620;28;20469;-69
2022/07/15 10:03:36;;;;;;;5.80;2.90;;;41.10;1.00;;;;;;5046956;28;20495;-69
2022/07/15 10:06:04;;;;;;;5.00;2.20;;;40.00;1.00;;;;;;5049651;28;20693;-69
2022/07/15 10:08:34;;;;;;;6.30;2.47;;;39.00;1.00;;;;;;5050195;28;20644;-69
2022/07/15 10:11:01;;;;;;;5.97;2.50;;;38.30;1.00;;;;;;5050226;28;20469;-69
2022/07/15 10:13:55;;;;;;;7.60;2.50;;;37.60;1.00;;;;;;5048733;28;21040;-69
2022/07/15 10:16:39;;;;;;;5.60;2.50;;;37.10;1.00;;;;;;5060299;28;20484;-69
2022/07/15 10:19:16;;;;;;;5.80;2.70;;;36.60;1.00;;;;;;5069964;28;20456;-69
2022/07/15 10:21:50;;;;;;;5.50;2.60;;;36.20;1.00;;;;;;5061219;28;20458;-70
2022/07/15 10:24:33;;;;;;;6.37;3.07;;;35.80;1.00;;;;;;5037724;28;20472;-69
2022/07/15 10:27:14;;;;;;;5.07;2.63;;;35.50;1.00;;;;;;5049285;28;20457;-69
2022/07/15 10:29:42;;;;;;;5.23;2.30;;;35.20;1.00;;;;;;5049580;28;20461;-69
2022/07/15 10:32:09;;;;;;;7.60;3.00;;;34.90;1.00;;;;;;5048859;28;20575;-69
2022/07/15 10:34:37;;;;;;;8.63;2.40;;;34.60;1.00;;;;;;5047208;28;20795;-69
2022/07/15 10:37:10;;;;;;;4.97;2.67;;;34.20;1.00;;;;;;5048974;28;20973;-69
2022/07/15 10:40:26;;;;;;;7.93;3.00;;;34.10;1.00;;;;;;5049381;28;20515;-69
2022/07/15 10:43:02;;;;;;;5.40;2.77;;;33.90;1.00;;;;;;5006011;28;20881;-69
2022/07/15 10:45:29;;;;;;;4.77;2.13;;;33.70;1.00;;;;;;5048666;28;20477;-69
2022/07/15 10:48:32;;;;;;;7.37;2.67;;;33.40;1.00;;;;;;5049363;28;20515;-69
2022/07/15 10:50:58;;;;;;;7.73;2.77;;;33.40;1.00;;;;;;5042067;28;20472;-69
2022/07/15 10:53:27;;;;;;;5.83;2.90;;;33.30;1.00;;;;;;5048294;28;20490;-69
2022/07/15 10:55:54;;;;;;;4.80;2.50;;;33.30;1.00;;;;;;5052021;28;20632;-69
2022/07/15 10:58:23;;;;;;;7.07;2.43;;;33.10;1.00;;;;;;5066155;28;20477;-69
2022/07/15 11:00:49;;;;;;;7.13;2.80;;;33.00;1.00;;;;;;5048698;28;20495;-69
2022/07/15 11:03:19;;;;;;;7.77;2.80;;;32.80;1.00;;;;;;5048401;28;20465;-69
2022/07/15 11:06:06;;;;;;;7.53;3.40;;;32.70;1.00;;;;;;5046734;28;20827;-69
2022/07/15 11:08:56;;;;;;;7.73;2.97;;;32.60;1.00;;;;;;5048767;28;20451;-69
2022/07/15 11:11:49;;;;;;;6.30;2.80;;;32.50;1.00;;;;;;5048569;28;20458;-69
2022/07/15 11:14:46;;;;;;;5.50;2.87;;;32.50;1.00;;;;;;5043318;28;20527;-69
2022/07/15 11:17:16;;;;;;;5.27;2.80;;;32.20;1.00;;;;;;5047838;28;20466;-69
2022/07/15 11:19:46;;;;;;;5.60;2.83;;;32.00;1.00;;;;;;5048789;28;20468;-69
2022/07/15 11:22:13;;;;;;;6.43;2.90;;;31.80;1.00;;;;;;5049029;28;20462;-69
2022/07/15 11:24:40;;;;;;;9.07;4.20;;;31.60;1.00;;;;;;5048308;28;20565;-69
2022/07/15 11:27:07;;;;;;;6.63;2.90;;;31.50;1.00;;;;;;5045956;28;20480;-69
2022/07/15 11:29:47;;;;;;;5.67;2.70;;;31.60;1.00;;;;;;5047662;28;20458;-69
2022/07/15 11:32:15;;;;;;;6.60;3.00;;;31.50;1.00;;;;;;5044718;28;20470;-69
2022/07/15 11:34:44;;;;;;;6.20;2.90;;;31.40;1.00;;;;;;5047856;28;20998;-69
2022/07/15 11:37:12;;;;;;;8.17;3.20;;;31.30;1.00;;;;;;5046519;28;20470;-69
2022/07/15 11:39:40;;;;;;;6.50;3.00;;;31.20;1.00;;;;;;5064135;28;20976;-69
2022/07/15 11:45:03;;;;;;;7.27;2.83;;;31.10;1.00;;;;;;5047531;28;20611;-69
2022/07/15 11:47:30;;;;;;;6.13;2.67;;;31.10;1.00;;;;;;5042569;28;20459;-68
2022/07/15 11:50:00;;;;;;;5.97;3.00;;;31.20;1.00;;;;;;5042999;28;20466;-69
2022/07/15 11:52:27;;;;;;;6.77;2.90;;;31.20;1.00;;;;;;5044609;28;20853;-68
2022/07/15 11:54:55;;;;;;;7.80;2.97;;;31.20;1.00;;;;;;5044790;28;20486;-69
2022/07/15 11:57:21;;;;;;;7.50;3.13;;;31.10;1.00;;;;;;5045026;28;20462;-68
2022/07/15 11:59:54;;;;;;;9.10;3.03;;;31.00;1.00;;;;;;5044963;28;20545;-69
2022/07/15 12:02:24;;;;;;;6.27;2.60;;;30.90;1.00;;;;;;5042170;28;20474;-68
2022/07/15 12:04:52;;;;;;;7.23;3.10;;;30.80;1.00;;;;;;5044194;28;20477;-68
2022/07/15 12:07:19;;;;;;;5.20;2.93;;;30.80;1.00;;;;;;5045177;28;20477;-69
2022/07/15 12:09:47;;;;;;;7.77;3.20;;;30.70;1.00;;;;;;5045512;28;20466;-69
2022/07/15 12:12:15;;;;;;;5.77;3.00;;;30.60;1.00;;;;;;5050721;28;20464;-68
2022/07/15 12:14:42;;;;;;;4.93;2.43;;;30.60;1.00;;;;;;5050158;28;20481;-69
2022/07/15 12:17:10;;;;;;;8.37;2.60;;;30.30;1.00;;;;;;5051882;28;20982;-69
2022/07/15 12:19:38;;;;;;;6.53;2.87;;;30.30;1.00;;;;;;5051752;28;20466;-69
2022/07/15 12:22:07;;;;;;;8.33;3.67;;;30.20;1.00;;;;;;5060711;28;20457;-69
2022/07/15 12:24:41;;;;;;;5.90;3.03;;;30.10;1.00;;;;;;5060749;28;20477;-69
2022/07/15 12:27:08;;;;;;;9.23;2.90;;;30.00;1.00;;;;;;5046931;28;20465;-69
2022/07/15 12:29:35;;;;;;;5.40;2.73;;;30.00;1.00;;;;;;5041902;28;20466;-69
2022/07/15 12:32:04;;;;;;;6.13;3.20;;;30.00;1.00;;;;;;5047182;28;20492;-69
2022/07/15 12:34:52;;;;;;;5.30;2.90;;;30.00;1.00;;;;;;5047306;28;20474;-69
2022/07/15 12:37:20;;;;;;;5.27;2.70;;;29.90;1.00;;;;;;5050507;28;20453;-69
2022/07/15 12:39:59;;;;;;;6.53;2.90;;;29.90;1.00;;;;;;5052861;28;20506;-69
2022/07/15 12:42:27;;;;;;;5.80;3.10;;;29.80;1.00;;;;;;5061112;28;20548;-69
2022/07/15 12:45:09;;;;;;;5.60;2.90;;;29.70;1.00;;;;;;5047190;28;20489;-69
2022/07/15 12:47:36;;;;;;;5.80;3.17;;;29.70;1.00;;;;;;5046089;28;20454;-69
2022/07/15 12:50:06;;;;;;;5.37;3.40;;;29.60;1.00;;;;;;5046685;28;20454;-69
2022/07/15 12:52:36;;;;;;;5.90;2.77;;;29.50;1.00;;;;;;5039079;28;20549;-69
2022/07/15 12:58:26;;;;;;;13.10;3.50;;;29.40;1.00;;;;;;5044923;28;20451;-69
2022/07/15 13:01:04;;;;;;;12.67;4.47;;;29.40;1.00;;;;;;5045579;28;20541;-69
2022/07/15 13:03:30;;;;;;;11.90;3.47;;;29.50;1.00;;;;;;5044381;28;20457;-69
2022/07/15 13:05:59;;;;;;;6.97;3.30;;;29.50;1.00;;;;;;5063060;28;20568;-69
2022/07/15 13:08:27;;;;;;;11.73;3.77;;;29.50;1.00;;;;;;5066350;28;20457;-69
2022/07/15 13:10:57;;;;;;;4.80;2.80;;;29.60;1.00;;;;;;5056854;28;20474;-69
2022/07/15 13:13:27;;;;;;;5.93;3.20;;;29.60;1.00;;;;;;5052911;28;20477;-69